createdAt,value
2022-11-16T00:00:05.431Z,22.50
2022-11-16T00:02:33.072Z,22.80
2022-11-16T00:05:00.031Z,24.10
2022-11-16T00:07:29.228Z,24.90
2022-11-16T00:09:58.481Z,23.13
2022-11-16T00:12:25.330Z,25.20
2022-11-16T00:14:56.943Z,26.07
2022-11-16T00:17:23.782Z,26.00
2022-11-16T00:19:50.761Z,25.30
2022-11-16T00:22:19.677Z,24.70
2022-11-16T00:24:49.555Z,24.57
2022-11-16T00:27:19.149Z,24.73
2022-11-16T00:29:46.003Z,25.20
2022-11-16T00:32:17.373Z,25.07
2022-11-16T00:34:44.233Z,26.07
2022-11-16T00:37:11.096Z,25.87
2022-11-16T00:39:38.126Z,25.00
2022-11-16T00:42:05.088Z,26.60
2022-11-16T00:44:32.271Z,26.00
2022-11-16T00:47:01.188Z,24.77
2022-11-16T00:49:28.093Z,27.13
2022-11-16T00:51:55.027Z,25.90
2022-11-16T00:54:27.918Z,26.30
2022-11-16T00:56:57.772Z,26.20
2022-11-16T00:59:26.787Z,26.40
2022-11-16T01:01:56.092Z,26.80
2022-11-16T01:04:22.975Z,26.83
2022-11-16T01:06:51.889Z,27.13
2022-11-16T01:09:23.329Z,27.73
2022-11-16T01:12:08.487Z,28.87
2022-11-16T01:14:46.612Z,28.57
2022-11-16T01:17:15.980Z,25.87
2022-11-16T01:19:47.459Z,26.80
2022-11-16T01:22:16.909Z,28.37
2022-11-16T01:24:48.484Z,27.97
2022-11-16T01:27:15.553Z,27.40
2022-11-16T01:29:42.544Z,29.37
2022-11-16T01:32:09.454Z,29.33
2022-11-16T01:34:36.526Z,29.63
2022-11-16T01:37:05.434Z,29.50
2022-11-16T01:39:37.899Z,29.50
2022-11-16T01:42:07.062Z,30.50
2022-11-16T01:44:35.851Z,28.07
2022-11-16T01:47:08.813Z,29.40
2022-11-16T01:49:43.933Z,28.90
2022-11-16T01:52:17.267Z,29.40
2022-11-16T01:54:47.361Z,28.07
2022-11-16T01:57:21.356Z,27.10
2022-11-16T01:59:57.247Z,28.70
2022-11-16T02:02:29.256Z,29.13
2022-11-16T02:04:59.843Z,27.93
2022-11-16T02:08:04.782Z,26.50
2022-11-16T02:11:02.604Z,29.13
2022-11-16T02:14:17.843Z,28.27
2022-11-16T02:17:01.259Z,27.30
2022-11-16T02:20:21.622Z,30.27
2022-11-16T02:23:15.805Z,29.30
2022-11-16T02:26:25.699Z,27.00
2022-11-16T02:29:48.288Z,29.03
2022-11-16T02:32:30.931Z,28.00
2022-11-16T02:35:19.630Z,29.40
2022-11-16T02:37:56.108Z,29.47
2022-11-16T02:40:30.763Z,28.87
2022-11-16T02:43:07.941Z,28.27
2022-11-16T02:45:42.958Z,28.80
2022-11-16T02:48:19.418Z,30.00
2022-11-16T02:50:48.998Z,27.67
2022-11-16T02:53:16.027Z,28.80
2022-11-16T02:55:45.205Z,27.13
2022-11-16T02:58:18.436Z,29.30
2022-11-16T03:01:17.649Z,27.37
2022-11-16T03:03:50.241Z,28.60
2022-11-16T03:06:24.822Z,28.00
2022-11-16T03:09:14.118Z,26.47
2022-11-16T03:12:02.285Z,27.40
2022-11-16T03:14:44.335Z,26.40
2022-11-16T03:17:24.317Z,24.97
2022-11-16T03:20:18.260Z,25.83
2022-11-16T03:22:56.344Z,24.47
2022-11-16T03:25:26.536Z,24.43
2022-11-16T03:27:54.727Z,24.90
2022-11-16T03:30:25.491Z,25.07
2022-11-16T03:32:57.219Z,26.53
2022-11-16T03:35:35.090Z,26.90
2022-11-16T03:38:07.372Z,25.10
2022-11-16T03:40:36.351Z,26.00
2022-11-16T03:43:06.776Z,26.30
2022-11-16T03:45:36.320Z,24.43
2022-11-16T03:48:03.342Z,27.17
2022-11-16T03:50:30.236Z,26.87
2022-11-16T03:52:59.299Z,26.07
2022-11-16T03:55:26.154Z,26.80
2022-11-16T03:57:53.006Z,27.27
2022-11-16T04:00:22.394Z,25.17
2022-11-16T04:02:49.901Z,26.03
2022-11-16T04:05:40.225Z,27.60
2022-11-16T04:08:33.136Z,28.00
2022-11-16T04:11:21.659Z,27.37
2022-11-16T04:14:09.295Z,28.30
2022-11-16T04:16:55.149Z,28.43
2022-11-16T04:19:40.253Z,27.47
2022-11-16T04:22:37.519Z,27.93
2022-11-16T04:25:17.461Z,27.40
2022-11-16T04:28:05.187Z,27.50
2022-11-16T04:30:52.092Z,28.07
2022-11-16T04:33:37.545Z,25.53
2022-11-16T04:36:26.355Z,26.90
2022-11-16T04:38:55.453Z,28.00
2022-11-16T04:41:40.668Z,27.37
2022-11-16T04:44:07.499Z,28.93
2022-11-16T04:46:52.668Z,26.50
2022-11-16T04:49:21.817Z,28.33
2022-11-16T04:51:49.315Z,26.67
2022-11-16T04:54:16.194Z,25.60
2022-11-16T04:56:46.079Z,25.87
2022-11-16T04:59:13.834Z,25.87
2022-11-16T05:02:06.520Z,26.60
2022-11-16T05:04:40.007Z,24.90
2022-11-16T05:07:12.969Z,26.83
2022-11-16T05:09:43.073Z,25.60
2022-11-16T05:12:14.783Z,26.00
2022-11-16T05:14:42.940Z,24.80
2022-11-16T05:17:14.945Z,25.67
2022-11-16T05:20:02.780Z,24.93
2022-11-16T05:22:31.733Z,26.70
2022-11-16T05:24:59.090Z,26.07
2022-11-16T05:27:27.974Z,26.80
2022-11-16T05:29:57.812Z,28.90
2022-11-16T05:32:30.220Z,26.33
2022-11-16T05:35:01.648Z,27.17
2022-11-16T05:37:30.397Z,27.10
2022-11-16T05:39:59.712Z,26.87
2022-11-16T05:42:26.561Z,27.07
2022-11-16T05:44:53.591Z,27.23
2022-11-16T05:47:20.455Z,27.20
2022-11-16T05:49:47.349Z,27.10
2022-11-16T05:52:14.190Z,27.67
2022-11-16T05:54:41.070Z,26.50
2022-11-16T05:57:07.929Z,27.37
2022-11-16T05:59:37.739Z,27.10
2022-11-16T06:02:06.823Z,27.27
2022-11-16T06:04:36.358Z,27.30
2022-11-16T06:07:03.327Z,26.37
2022-11-16T06:09:32.713Z,26.13
2022-11-16T06:11:59.621Z,29.07
2022-11-16T06:14:28.521Z,26.47
2022-11-16T06:16:55.387Z,26.67
2022-11-16T06:19:22.327Z,26.30
2022-11-16T06:21:49.784Z,25.17
2022-11-16T06:24:16.642Z,26.37
2022-11-16T06:26:43.519Z,25.17
2022-11-16T06:29:10.347Z,25.53
2022-11-16T06:31:37.200Z,26.43
2022-11-16T06:34:04.127Z,25.80
2022-11-16T06:36:30.992Z,24.67
2022-11-16T06:39:01.016Z,25.77
2022-11-16T06:41:27.864Z,26.80
2022-11-16T06:43:54.729Z,29.93
2022-11-16T06:46:24.642Z,26.53
2022-11-16T06:48:51.681Z,25.20
2022-11-16T06:51:20.829Z,24.37
2022-11-16T06:53:47.665Z,25.80
2022-11-16T06:56:16.215Z,26.60
2022-11-16T06:58:51.933Z,25.60
2022-11-16T07:01:23.201Z,26.40
2022-11-16T07:03:53.044Z,24.97
2022-11-16T07:06:22.156Z,25.60
2022-11-16T07:08:49.111Z,26.10
2022-11-16T07:11:16.004Z,27.90
2022-11-16T07:13:44.946Z,26.70
2022-11-16T07:16:14.963Z,26.80
2022-11-16T07:18:42.105Z,27.13
2022-11-16T07:21:16.779Z,26.73
2022-11-16T07:23:44.407Z,26.07
2022-11-16T07:26:11.908Z,26.57
2022-11-16T07:28:47.737Z,26.43
2022-11-16T07:31:16.195Z,26.90
2022-11-16T07:33:43.150Z,26.30
2022-11-16T07:36:14.410Z,26.43
2022-11-16T07:38:41.830Z,25.47
2022-11-16T07:41:15.320Z,27.47
2022-11-16T07:43:49.891Z,27.10
2022-11-16T07:46:45.858Z,27.53
2022-11-16T07:49:15.270Z,24.93
2022-11-16T07:51:42.328Z,25.70
2022-11-16T07:54:17.557Z,26.27
2022-11-16T07:56:44.469Z,25.60
2022-11-16T07:59:13.992Z,28.30
2022-11-16T08:01:40.907Z,28.30
2022-11-16T08:04:07.836Z,28.03
2022-11-16T08:06:34.678Z,29.13
2022-11-16T08:09:02.109Z,28.70
2022-11-16T08:11:31.198Z,26.50
2022-11-16T08:13:58.168Z,29.07
2022-11-16T08:16:25.155Z,27.93
2022-11-16T08:18:52.050Z,26.90
2022-11-16T08:21:19.932Z,27.57
2022-11-16T08:23:52.597Z,26.87
2022-11-16T08:26:25.311Z,29.30
2022-11-16T08:28:53.738Z,28.10
2022-11-16T08:31:24.332Z,31.30
2022-11-16T08:33:56.739Z,28.97
2022-11-16T08:36:23.769Z,28.97
2022-11-16T08:38:52.645Z,27.57
2022-11-16T08:41:24.617Z,30.10
2022-11-16T08:43:53.248Z,27.73
2022-11-16T08:46:21.577Z,29.30
2022-11-16T08:48:51.380Z,32.00
2022-11-16T08:51:19.585Z,30.57
2022-11-16T08:53:48.248Z,29.87
2022-11-16T08:56:17.828Z,29.50
2022-11-16T08:58:47.085Z,30.80
2022-11-16T09:01:21.553Z,30.97
2022-11-16T09:03:48.729Z,27.83
2022-11-16T09:06:16.194Z,28.50
2022-11-16T09:08:47.221Z,30.53
2022-11-16T09:11:17.887Z,30.30
2022-11-16T09:13:46.811Z,29.30
2022-11-16T09:16:17.802Z,31.10
2022-11-16T09:18:50.766Z,29.97
2022-11-16T09:21:29.213Z,30.87
2022-11-16T09:23:57.732Z,30.90
2022-11-16T09:26:28.376Z,30.17
2022-11-16T09:29:04.314Z,31.10
2022-11-16T09:31:34.761Z,30.50
2022-11-16T09:34:02.865Z,30.93
2022-11-16T09:36:30.430Z,31.20
2022-11-16T09:42:13.955Z,30.30
2022-11-16T09:45:11.293Z,30.40
2022-11-16T09:47:49.746Z,31.20
2022-11-16T09:51:01.841Z,30.87
2022-11-16T09:53:37.426Z,30.87
2022-11-16T09:56:31.727Z,30.30
2022-11-16T09:59:28.777Z,29.17
2022-11-16T10:02:09.542Z,31.50
2022-11-16T10:04:38.324Z,30.63
2022-11-16T10:07:13.561Z,31.57
2022-11-16T10:09:46.983Z,29.50
2022-11-16T10:12:35.741Z,29.90
2022-11-16T10:15:30.039Z,30.53
2022-11-16T10:18:42.481Z,31.97
2022-11-16T10:21:18.288Z,32.97
2022-11-16T10:24:24.506Z,32.20
2022-11-16T10:27:17.863Z,31.00
2022-11-16T10:30:16.360Z,30.10
2022-11-16T10:33:11.143Z,33.73
2022-11-16T10:35:49.043Z,30.80
2022-11-16T10:38:28.769Z,29.87
2022-11-16T10:41:13.546Z,30.73
2022-11-16T10:43:45.412Z,29.67
2022-11-16T10:46:27.163Z,32.63
2022-11-16T10:49:36.952Z,34.03
2022-11-16T10:52:04.062Z,32.60
2022-11-16T10:54:30.912Z,33.03
2022-11-16T10:57:17.312Z,30.13
2022-11-16T10:59:46.891Z,31.27
2022-11-16T11:02:23.102Z,32.00
2022-11-16T11:05:10.990Z,32.60
2022-11-16T11:07:40.199Z,34.03
2022-11-16T11:10:30.933Z,32.57
2022-11-16T11:13:13.666Z,34.43
2022-11-16T11:15:44.585Z,34.33
2022-11-16T11:18:23.505Z,31.50
2022-11-16T11:21:08.102Z,34.07
2022-11-16T11:23:51.608Z,35.67
2022-11-16T11:26:39.127Z,35.10
2022-11-16T11:29:31.371Z,34.20
2022-11-16T11:32:04.451Z,32.73
2022-11-16T11:34:41.790Z,32.50
2022-11-16T11:37:16.678Z,34.20
2022-11-16T11:39:43.666Z,32.87
2022-11-16T11:42:13.630Z,32.03
2022-11-16T11:44:49.649Z,31.43
2022-11-16T11:48:06.992Z,31.13
2022-11-16T11:50:47.247Z,31.40
2022-11-16T11:53:24.118Z,31.43
2022-11-16T11:56:03.168Z,29.93
2022-11-16T11:58:33.521Z,31.53
2022-11-16T12:01:37.838Z,30.77
2022-11-16T12:04:20.371Z,31.80
2022-11-16T12:07:05.785Z,30.77
2022-11-16T12:09:38.241Z,33.30
2022-11-16T12:12:19.880Z,29.53
2022-11-16T12:15:11.594Z,29.30
2022-11-16T12:18:02.412Z,29.57
2022-11-16T12:21:14.205Z,30.23
2022-11-16T12:24:36.861Z,28.90
2022-11-16T12:27:44.483Z,32.00
2022-11-16T12:30:19.318Z,32.10
2022-11-16T12:33:10.549Z,33.30
2022-11-16T12:35:48.779Z,33.20
2022-11-16T12:38:40.277Z,32.77
2022-11-16T12:41:37.838Z,31.50
2022-11-16T12:44:42.043Z,32.37
2022-11-16T12:47:33.582Z,31.20
2022-11-16T12:50:26.665Z,33.70
2022-11-16T12:53:11.691Z,33.50
2022-11-16T12:56:11.226Z,33.10
2022-11-16T12:58:47.194Z,33.67
2022-11-16T13:01:23.265Z,35.23
2022-11-16T13:03:59.960Z,35.90
2022-11-16T13:06:44.210Z,33.10
2022-11-16T13:09:22.395Z,37.30
2022-11-16T13:12:01.391Z,38.30
2022-11-16T13:14:40.888Z,36.77
2022-11-16T13:17:31.943Z,36.50
2022-11-16T13:20:28.488Z,36.47
2022-11-16T13:23:06.922Z,34.27
2022-11-16T13:26:10.482Z,34.70
2022-11-16T13:28:53.346Z,33.43
2022-11-16T13:31:31.710Z,31.20
2022-11-16T13:34:18.153Z,32.53
2022-11-16T13:36:49.590Z,29.43
2022-11-16T13:39:22.559Z,27.17
2022-11-16T13:42:20.083Z,27.57
2022-11-16T13:44:51.640Z,28.80
2022-11-16T13:47:30.988Z,27.93
2022-11-16T13:50:01.452Z,26.73
2022-11-16T13:56:03.547Z,23.60
2022-11-16T13:58:32.377Z,25.00
2022-11-16T14:01:02.018Z,23.87
2022-11-16T14:03:40.630Z,24.27
2022-11-16T14:06:15.652Z,24.87
2022-11-16T14:08:53.386Z,24.97
2022-11-16T14:11:33.943Z,24.07
2022-11-16T14:14:08.675Z,23.83
2022-11-16T14:16:46.299Z,21.90
2022-11-16T14:19:51.849Z,23.93
2022-11-16T14:22:49.661Z,22.57
2022-11-16T14:25:51.767Z,22.77
2022-11-16T14:28:30.820Z,23.93
2022-11-16T14:31:30.216Z,25.47
2022-11-16T14:34:00.168Z,23.53
2022-11-16T14:36:41.992Z,24.33
2022-11-16T14:39:33.844Z,23.33
2022-11-16T14:42:48.199Z,24.23
2022-11-16T14:45:28.175Z,22.90
2022-11-16T14:48:19.255Z,23.23
2022-11-16T14:51:11.076Z,24.87
2022-11-16T14:53:42.338Z,23.47
2022-11-16T14:56:18.705Z,23.93
2022-11-16T14:58:59.070Z,24.23
2022-11-16T15:01:42.075Z,25.80
2022-11-16T15:04:19.089Z,24.30
2022-11-16T15:06:54.859Z,27.20
2022-11-16T15:09:38.681Z,26.07
2022-11-16T15:12:32.744Z,27.80
2022-11-16T15:15:12.113Z,28.17
2022-11-16T15:17:45.560Z,27.60
2022-11-16T15:20:23.188Z,28.90
2022-11-16T15:22:58.633Z,27.40
2022-11-16T15:25:35.632Z,27.87
2022-11-16T15:28:29.822Z,27.07
2022-11-16T15:31:04.882Z,25.60
2022-11-16T15:33:41.962Z,25.77
2022-11-16T15:36:44.025Z,29.20
2022-11-16T15:39:34.395Z,26.90
2022-11-16T15:42:04.065Z,25.97
2022-11-16T15:44:33.546Z,28.07
2022-11-16T15:47:02.910Z,26.00
2022-11-16T15:49:30.468Z,25.80
2022-11-16T15:52:01.060Z,28.17
2022-11-16T15:54:51.193Z,27.70
2022-11-16T15:57:21.203Z,28.83
2022-11-16T15:59:56.391Z,27.20
2022-11-16T16:02:28.834Z,27.53
2022-11-16T16:04:57.955Z,26.30
2022-11-16T16:07:43.137Z,26.67
2022-11-16T16:10:18.775Z,24.50
2022-11-16T16:12:54.916Z,24.97
2022-11-16T16:15:30.020Z,25.33
2022-11-16T16:18:01.348Z,23.47
2022-11-16T16:20:32.676Z,22.90
2022-11-16T16:23:13.604Z,23.77
2022-11-16T16:25:40.432Z,25.13
2022-11-16T16:28:07.291Z,26.13
2022-11-16T16:30:34.956Z,25.17
2022-11-16T16:33:04.249Z,24.30
2022-11-16T16:35:31.158Z,24.43
2022-11-16T16:38:01.040Z,26.00
2022-11-16T16:40:29.032Z,24.37
2022-11-16T16:42:56.870Z,21.90
2022-11-16T16:45:38.845Z,20.00
2022-11-16T16:48:11.706Z,21.67
2022-11-16T16:50:39.233Z,21.90
2022-11-16T16:53:06.669Z,22.07
2022-11-16T16:55:37.789Z,21.83
2022-11-16T16:58:05.378Z,21.37
2022-11-16T17:00:37.086Z,21.63
2022-11-16T17:03:09.329Z,22.13
2022-11-16T17:05:36.216Z,22.33
2022-11-16T17:08:03.646Z,23.30
2022-11-16T17:10:30.586Z,22.10
2022-11-16T17:13:03.043Z,20.50
2022-11-16T17:15:32.452Z,20.03
2022-11-16T17:18:02.606Z,21.17
2022-11-16T17:20:29.461Z,22.00
2022-11-16T17:22:56.320Z,20.83
2022-11-16T17:25:25.293Z,20.20
2022-11-16T17:27:52.135Z,18.43
2022-11-16T17:30:22.097Z,17.93
2022-11-16T17:32:53.838Z,18.67
2022-11-16T17:35:20.740Z,17.20
2022-11-16T17:37:50.598Z,16.43
2022-11-16T17:40:17.565Z,17.53
2022-11-16T17:42:44.461Z,15.57
2022-11-16T17:45:12.025Z,14.23
2022-11-16T17:47:39.167Z,15.30
2022-11-16T17:50:06.876Z,14.20
2022-11-16T17:52:36.776Z,14.10
2022-11-16T17:55:06.143Z,13.93
2022-11-16T17:57:35.784Z,13.07
2022-11-16T18:00:03.116Z,13.07
2022-11-16T18:02:34.793Z,11.70
2022-11-16T18:05:01.759Z,10.67
2022-11-16T18:07:30.575Z,11.33
2022-11-16T18:09:57.529Z,13.10
2022-11-16T18:12:26.588Z,12.03
2022-11-16T18:15:21.425Z,10.10
2022-11-16T18:17:40.346Z,11.37
2022-11-16T18:20:10.745Z,11.50
2022-11-16T18:22:38.115Z,10.60
2022-11-16T18:25:06.028Z,10.30
2022-11-16T18:27:34.198Z,10.50
2022-11-16T18:30:04.190Z,10.60
2022-11-16T18:32:31.169Z,8.87
2022-11-16T18:34:58.016Z,10.40
2022-11-16T18:37:25.373Z,10.37
2022-11-16T18:39:52.261Z,9.97
2022-11-16T18:42:22.150Z,9.33
2022-11-16T18:44:51.365Z,9.87
2022-11-16T18:47:20.798Z,9.83
2022-11-16T18:49:51.733Z,9.17
2022-11-16T18:52:18.768Z,10.47
2022-11-16T18:54:45.651Z,10.30
2022-11-16T18:57:12.554Z,9.60
2022-11-16T18:59:42.396Z,9.03
2022-11-16T19:02:12.443Z,9.07
2022-11-16T19:04:40.301Z,9.07
2022-11-16T19:07:13.005Z,8.20
2022-11-16T19:09:40.014Z,10.20
2022-11-16T19:12:09.448Z,10.00
2022-11-16T19:14:36.483Z,9.57
2022-11-16T19:17:04.864Z,8.90
2022-11-16T19:19:31.804Z,8.93
2022-11-16T19:21:58.729Z,9.37
2022-11-16T19:24:27.929Z,8.70
2022-11-16T19:26:57.287Z,9.03
2022-11-16T19:29:26.876Z,9.40
2022-11-16T19:31:55.785Z,8.80
2022-11-16T19:34:23.033Z,9.33
2022-11-16T19:36:50.000Z,8.50
2022-11-16T19:39:17.712Z,9.30
2022-11-16T19:41:47.476Z,9.20
2022-11-16T19:44:16.493Z,9.83
2022-11-16T19:46:43.745Z,9.60
2022-11-16T19:49:18.543Z,9.90
2022-11-16T19:51:49.662Z,10.07
2022-11-16T19:54:19.829Z,10.13
2022-11-16T19:56:50.582Z,11.27
2022-11-16T19:59:20.678Z,10.97
2022-11-16T20:01:52.073Z,11.23
2022-11-16T20:04:25.529Z,11.40
2022-11-16T20:06:52.468Z,11.17
2022-11-16T20:09:19.802Z,11.70
2022-11-16T20:11:55.067Z,11.63
2022-11-16T20:14:24.441Z,10.97
2022-11-16T20:16:51.554Z,11.20
2022-11-16T20:19:21.532Z,10.60
2022-11-16T20:21:53.211Z,11.13
2022-11-16T20:24:20.288Z,11.90
2022-11-16T20:26:51.035Z,11.77
2022-11-16T20:29:20.549Z,11.50
2022-11-16T20:31:47.996Z,11.30
2022-11-16T20:34:20.741Z,12.20
2022-11-16T20:36:51.291Z,11.40
2022-11-16T20:39:21.389Z,11.80
2022-11-16T20:41:48.853Z,9.87
2022-11-16T20:44:21.892Z,10.50
2022-11-16T20:46:54.075Z,11.40
2022-11-16T20:49:21.045Z,11.67
2022-11-16T20:51:49.442Z,10.37
2022-11-16T20:54:18.824Z,10.80
2022-11-16T20:56:45.702Z,10.07
2022-11-16T20:59:12.593Z,10.70
2022-11-16T21:01:47.512Z,9.43
2022-11-16T21:04:20.604Z,10.70
2022-11-16T21:06:47.450Z,10.30
2022-11-16T21:09:22.760Z,11.30
2022-11-16T21:12:10.979Z,11.53
2022-11-16T21:14:37.919Z,11.60
2022-11-16T21:17:04.955Z,10.33
2022-11-16T21:19:31.891Z,10.80
2022-11-16T21:21:58.765Z,11.00
2022-11-16T21:24:27.546Z,11.63
2022-11-16T21:26:57.130Z,10.30
2022-11-16T21:29:25.972Z,10.50
2022-11-16T21:31:52.947Z,10.73
2022-11-16T21:34:20.337Z,10.10
2022-11-16T21:36:52.315Z,9.83
2022-11-16T21:39:19.203Z,9.90
2022-11-16T21:41:48.346Z,9.60
2022-11-16T21:44:15.365Z,11.27
2022-11-16T21:46:42.345Z,10.43
2022-11-16T21:49:09.411Z,9.20
2022-11-16T21:51:38.868Z,8.87
2022-11-16T21:54:07.885Z,10.90
2022-11-16T21:56:36.900Z,10.37
2022-11-16T21:59:06.354Z,9.20
2022-11-16T22:01:59.436Z,8.60
2022-11-16T22:04:45.121Z,8.70
2022-11-16T22:07:36.889Z,8.30
2022-11-16T22:10:10.955Z,8.47
2022-11-16T22:12:38.884Z,8.87
2022-11-16T22:15:07.401Z,9.07
2022-11-16T22:17:37.257Z,9.10
2022-11-16T22:20:04.703Z,8.40
2022-11-16T22:22:33.781Z,8.53
2022-11-16T22:25:01.057Z,7.23
2022-11-16T22:27:28.218Z,7.60
2022-11-16T22:29:55.116Z,8.13
2022-11-16T22:32:22.079Z,7.20
2022-11-16T22:34:51.491Z,7.83
2022-11-16T22:37:20.874Z,8.57
2022-11-16T22:39:47.781Z,7.43
2022-11-16T22:42:16.801Z,8.17
2022-11-16T22:44:43.769Z,7.03
2022-11-16T22:47:13.092Z,7.87
2022-11-16T22:49:40.195Z,7.60
2022-11-16T22:52:07.115Z,7.33
2022-11-16T22:54:37.780Z,6.90
2022-11-16T22:57:07.274Z,7.27
2022-11-16T22:59:34.142Z,6.83
2022-11-16T23:02:04.898Z,8.23
2022-11-16T23:04:32.251Z,7.90
2022-11-16T23:07:01.265Z,7.00
2022-11-16T23:09:28.289Z,6.80
2022-11-16T23:12:14.008Z,7.30
2022-11-16T23:14:59.392Z,6.53
2022-11-16T23:17:31.013Z,6.40
2022-11-16T23:20:18.833Z,7.13
2022-11-16T23:23:04.114Z,6.50
2022-11-16T23:25:49.736Z,6.67
2022-11-16T23:28:19.162Z,7.30
2022-11-16T23:30:46.136Z,6.23
2022-11-16T23:33:13.059Z,6.30
2022-11-16T23:35:40.002Z,5.97
2022-11-16T23:38:09.919Z,6.87
2022-11-16T23:40:40.449Z,5.87
2022-11-16T23:43:28.762Z,7.33
2022-11-16T23:45:57.758Z,6.63
2022-11-16T23:48:24.733Z,6.60
2022-11-16T23:50:51.599Z,6.07
2022-11-16T23:53:18.540Z,6.50
2022-11-16T23:55:48.421Z,7.07
2022-11-16T23:58:15.425Z,6.80
